Time;durP1;ratioP1;P1;durP2;ratioP2;P2;SDS_P1;SDS_P2;PMS_P1;PMS_P2;Temp;Humidity;BMP_temperature;BMP_pressure;BME280_temperature;BME280_humidity;BME280_pressure;Samples;Min_cycle;Max_cycle;Signal;HPM_P1;HPM_P2
2021/04/13 00:01:19;;;;;;;11.70;6.07;;;;;;;0.73;80.80;102142.67;115840;1209;63566;-79
2021/04/13 00:03:51;;;;;;;11.03;4.47;;;;;;;0.70;80.86;102142.81;115877;1209;63178;-79
2021/04/13 00:06:25;;;;;;;8.67;5.33;;;;;;;0.58;81.04;102131.21;115900;1209;62225;-79
2021/04/13 00:08:58;;;;;;;16.98;5.88;;;;;;;0.63;81.14;102144.88;115888;1209;62826;-79
2021/04/13 00:11:26;;;;;;;9.33;5.30;;;;;;;0.61;81.43;102146.72;115937;1209;63329;-80
2021/04/13 00:13:56;;;;;;;7.47;4.93;;;;;;;0.61;80.79;102141.49;115839;1209;62489;-79
2021/04/13 00:16:27;;;;;;;11.77;5.47;;;;;;;0.59;81.21;102141.56;115907;1209;62444;-79
2021/04/13 00:18:55;;;;;;;7.83;4.50;;;;;;;0.58;81.98;102137.27;115900;1209;62437;-79
2021/04/13 00:21:44;;;;;;;10.13;5.47;;;;;;;0.59;81.63;102135.50;115857;1209;62174;-80
2021/04/13 00:24:15;;;;;;;8.53;4.93;;;;;;;0.60;81.24;102139.81;115869;1209;64122;-79
2021/04/13 00:26:48;;;;;;;9.65;4.80;;;;;;;0.60;81.43;102134.59;115884;1209;62198;-79
2021/04/13 00:29:21;;;;;;;8.20;4.30;;;;;;;0.58;81.26;102133.82;115883;1208;62432;-80
2021/04/13 00:31:55;;;;;;;9.70;5.23;;;;;;;0.54;81.11;102132.28;115859;1209;62191;-80
2021/04/13 00:34:31;;;;;;;6.80;3.97;;;;;;;0.49;80.96;102139.47;115888;1209;62340;-79
2021/04/13 00:37:20;;;;;;;23.27;7.07;;;;;;;0.43;81.14;102131.96;115862;1209;62938;-79
2021/04/13 00:39:48;;;;;;;9.60;4.50;;;;;;;0.35;81.60;102146.20;115823;1209;62496;-79
2021/04/13 00:42:27;;;;;;;11.83;6.07;;;;;;;0.29;81.65;102138.66;115894;1209;62354;-80
2021/04/13 00:45:01;;;;;;;11.43;5.60;;;;;;;0.24;81.99;102132.83;115850;1209;62257;-80
2021/04/13 00:47:32;;;;;;;9.00;4.73;;;;;;;0.18;82.19;102127.89;115866;1209;62706;-79
2021/04/13 00:50:07;;;;;;;4.93;3.33;;;;;;;0.13;82.06;102128.12;115879;1209;63054;-80
2021/04/13 00:52:39;;;;;;;6.58;3.48;;;;;;;0.08;83.03;102137.06;115863;1209;61997;-81
2021/04/13 00:55:12;;;;;;;10.30;5.30;;;;;;;0.05;82.28;102132.00;115862;1209;62794;-80
2021/04/13 00:57:42;;;;;;;11.43;6.40;;;;;;;0.01;83.32;102135.67;115853;1209;62641;-80
2021/04/13 01:00:18;;;;;;;10.60;5.83;;;;;;;-0.01;83.42;102136.57;115834;1209;62402;-80
2021/04/13 01:02:44;;;;;;;9.83;5.50;;;;;;;-0.01;83.14;102138.34;115846;1209;62352;-79
2021/04/13 01:05:21;;;;;;;12.70;6.25;;;;;;;0.01;83.75;102135.67;115829;1209;62495;-80
2021/04/13 01:07:53;;;;;;;14.80;6.70;;;;;;;0.05;84.07;102137.22;115902;1209;62689;-81
2021/04/13 01:10:41;;;;;;;10.87;5.47;;;;;;;0.09;84.18;102139.61;115879;1209;62503;-80
2021/04/13 01:13:14;;;;;;;13.30;5.30;;;;;;;0.15;84.12;102139.33;115845;1209;62510;-80
2021/04/13 01:15:46;;;;;;;10.20;5.93;;;;;;;0.17;83.63;102150.55;115851;1209;62146;-79
2021/04/13 01:18:20;;;;;;;15.10;6.35;;;;;;;0.18;83.64;102148.77;115914;1209;62521;-80
2021/04/13 01:21:38;;;;;;;12.85;5.95;;;;;;;0.20;83.72;102152.16;115867;1209;64064;-80
2021/04/13 01:24:12;;;;;;;18.97;7.70;;;;;;;0.19;83.88;102143.48;115839;1209;62295;-80
2021/04/13 01:26:44;;;;;;;22.87;9.60;;;;;;;0.20;83.72;102152.16;115880;1209;62133;-81
2021/04/13 01:29:15;;;;;;;15.90;6.37;;;;;;;0.17;83.24;102142.72;115819;1209;62082;-81
2021/04/13 01:31:54;;;;;;;16.60;7.73;;;;;;;0.16;83.48;102145.39;115844;1209;62117;-82
2021/04/13 01:34:34;;;;;;;13.03;6.87;;;;;;;0.13;83.89;102142.94;115841;1209;62428;-82
2021/04/13 01:37:09;;;;;;;18.80;8.93;;;;;;;0.11;84.05;102136.94;115874;1209;62281;-81
2021/04/13 01:39:45;;;;;;;24.30;9.50;;;;;;;0.10;83.97;102135.23;115894;1209;62838;-81
2021/04/13 01:42:13;;;;;;;21.45;8.80;;;;;;;0.11;84.48;102139.55;115862;1209;62576;-81
2021/04/13 01:44:47;;;;;;;11.77;5.40;;;;;;;0.10;84.24;102136.07;115860;1209;62312;-81
2021/04/13 01:47:17;;;;;;;13.30;7.47;;;;;;;0.11;84.58;102139.55;115843;1209;62493;-81
2021/04/13 01:49:51;;;;;;;15.30;7.83;;;;;;;0.11;84.44;102126.50;115900;1209;62329;-82
2021/04/13 01:52:32;;;;;;;16.20;8.05;;;;;;;0.09;84.04;102129.17;115840;1209;62206;-81
2021/04/13 01:55:19;;;;;;;20.17;9.07;;;;;;;0.08;84.22;102135.30;115830;1209;62425;-81
2021/04/13 01:58:13;;;;;;;18.50;9.23;;;;;;;0.07;83.93;102127.56;115701;1209;62975;-81
2021/04/13 02:00:40;;;;;;;18.80;9.10;;;;;;;0.03;84.53;102133.84;115887;1209;62361;-82
2021/04/13 02:03:18;;;;;;;18.83;9.03;;;;;;;0.01;83.84;102135.67;115911;1209;62237;-82
2021/04/13 02:05:54;;;;;;;22.23;11.13;;;;;;;-0.04;84.46;102134.13;115925;1209;62271;-81
2021/04/13 02:08:29;;;;;;;24.33;11.37;;;;;;;-0.06;84.73;102133.34;115810;1209;62344;-81
2021/04/13 02:11:09;;;;;;;23.63;10.53;;;;;;;-0.07;84.56;102133.41;115912;1209;62330;-81
2021/04/13 02:13:53;;;;;;;22.47;10.37;;;;;;;-0.05;84.56;102126.36;115877;1209;62720;-81
2021/04/13 02:16:22;;;;;;;17.40;9.80;;;;;;;-0.04;84.68;102131.52;115868;1209;62268;-80
2021/04/13 02:18:52;;;;;;;20.17;10.13;;;;;;;-0.02;84.62;102132.28;115901;1209;62355;-79
2021/04/13 02:21:38;;;;;;;24.57;11.77;;;;;;;0.02;84.94;102137.34;115891;1209;62962;-79
2021/04/13 02:24:12;;;;;;;16.07;8.43;;;;;;;0.06;84.75;102136.29;115854;1209;62527;-80
2021/04/13 02:26:50;;;;;;;20.17;9.43;;;;;;;0.05;85.25;102137.22;115811;1209;62520;-80
2021/04/13 02:29:20;;;;;;;24.90;10.43;;;;;;;0.05;84.53;102134.61;115861;1209;62204;-80
2021/04/13 02:31:56;;;;;;;19.57;8.97;;;;;;;0.04;84.63;102132.91;115867;1209;62325;-80
2021/04/13 02:34:30;;;;;;;21.57;10.80;;;;;;;0.03;84.77;102133.84;115871;1209;63349;-79
2021/04/13 02:37:01;;;;;;;20.65;10.35;;;;;;;0.02;85.13;102134.73;115837;1209;62665;-77
2021/04/13 02:39:31;;;;;;;16.37;6.40;;;;;;;-0.01;84.85;102128.75;115858;1209;62305;-79
2021/04/13 02:42:19;;;;;;;23.43;11.27;;;;;;;-0.05;84.57;102129.80;115870;1209;62337;-78
2021/04/13 02:45:01;;;;;;;25.17;11.30;;;;;;;-0.09;84.75;102125.64;115800;1209;62203;-79
2021/04/13 02:47:30;;;;;;;24.60;11.50;;;;;;;-0.11;84.93;102122.25;115806;1209;62410;-79
2021/04/13 02:50:04;;;;;;;26.80;11.47;;;;;;;-0.14;84.91;102132.84;115803;1209;62424;-80
2021/04/13 02:52:36;;;;;;;20.85;10.80;;;;;;;-0.17;85.27;102126.91;115871;1209;62497;-79
2021/04/13 02:55:07;;;;;;;20.87;11.37;;;;;;;-0.17;85.08;102127.78;115781;1209;62691;-79
2021/04/13 02:57:45;;;;;;;19.03;10.90;;;;;;;-0.19;84.56;102129.61;115853;1209;64046;-79
2021/04/13 03:00:29;;;;;;;21.93;11.33;;;;;;;-0.20;84.69;102133.13;115633;1209;64237;-79
2021/04/13 03:03:02;;;;;;;23.85;10.55;;;;;;;-0.23;85.21;102130.66;115758;1209;62838;-79
2021/04/13 03:05:30;;;;;;;21.70;9.73;;;;;;;-0.26;84.54;102129.02;115801;1209;62310;-79
2021/04/13 03:08:02;;;;;;;19.17;9.10;;;;;;;-0.30;84.94;102124.02;115798;1209;62444;-80
2021/04/13 03:10:31;;;;;;;19.87;9.40;;;;;;;-0.32;84.70;102129.33;115801;1209;62408;-80
2021/04/13 03:13:05;;;;;;;16.83;9.00;;;;;;;-0.34;85.53;102130.28;115863;1209;62914;-80
2021/04/13 03:15:33;;;;;;;18.37;9.00;;;;;;;-0.35;85.21;102131.21;115890;1209;62573;-80
2021/04/13 03:18:06;;;;;;;18.95;9.05;;;;;;;-0.37;85.85;102130.44;115873;1209;62244;-82
2021/04/13 03:20:40;;;;;;;20.15;9.40;;;;;;;-0.37;85.41;102138.26;115884;1209;62302;-82
2021/04/13 03:23:09;;;;;;;16.10;8.13;;;;;;;-0.37;85.16;102135.65;115865;1209;62231;-82
2021/04/13 03:25:50;;;;;;;13.60;7.50;;;;;;;-0.36;86.15;102139.94;115876;1209;63724;-81
2021/04/13 03:28:23;;;;;;;13.50;6.93;;;;;;;-0.37;85.69;102135.65;115829;1209;64112;-80
2021/04/13 03:30:52;;;;;;;12.00;6.60;;;;;;;-0.36;85.93;102139.94;115893;1209;62505;-80
2021/04/13 03:33:26;;;;;;;21.20;7.05;;;;;;;-0.33;86.00;102147.63;115917;1209;62346;-80
2021/04/13 03:36:02;;;;;;;18.40;7.83;;;;;;;-0.31;86.09;102151.02;115908;1209;62302;-80
2021/04/13 03:38:28;;;;;;;15.90;7.23;;;;;;;-0.27;86.34;102142.15;115845;1209;62382;-81
2021/04/13 03:40:55;;;;;;;14.20;6.80;;;;;;;-0.24;86.32;102147.21;115881;1209;63652;-81
2021/04/13 03:43:26;;;;;;;27.87;8.13;;;;;;;-0.21;86.09;102147.09;115853;1209;62456;-80
2021/04/13 03:45:57;;;;;;;20.27;7.67;;;;;;;-0.18;86.02;102146.09;115891;1209;62231;-80
2021/04/13 03:48:29;;;;;;;16.20;7.25;;;;;;;-0.16;86.01;102145.11;115883;1209;61865;-81
2021/04/13 03:51:01;;;;;;;15.30;7.00;;;;;;;-0.14;86.17;102145.05;115801;1209;64292;-82
2021/04/13 03:53:38;;;;;;;20.03;6.80;;;;;;;-0.11;86.48;102148.34;115736;1209;64402;-83
2021/04/13 03:56:11;;;;;;;16.67;7.67;;;;;;;-0.09;86.43;102151.73;115871;1209;62313;-82
2021/04/13 03:58:52;;;;;;;15.00;7.07;;;;;;;-0.06;86.51;102153.38;115887;1209;62501;-82
2021/04/13 04:01:21;;;;;;;13.90;6.30;;;;;;;-0.03;86.60;102145.39;115897;1209;62370;-81
2021/04/13 04:04:04;;;;;;;13.33;6.27;;;;;;;-0.03;86.61;102154.05;115921;1208;62072;-81
2021/04/13 04:09:30;;;;;;;12.43;6.10;;;;;;;-0.01;86.89;102148.78;116114;1209;62085;-81
2021/04/13 04:12:04;;;;;;;12.30;6.50;;;;;;;-0.02;86.54;102145.33;115811;1209;62494;-81
2021/04/13 04:14:34;;;;;;;9.25;5.15;;;;;;;-0.02;86.11;102153.16;115790;1209;62264;-81
2021/04/13 04:17:03;;;;;;;9.20;4.57;;;;;;;-0.04;86.54;102160.20;115603;1209;64365;-82
2021/04/13 04:19:30;;;;;;;10.30;5.55;;;;;;;-0.07;86.14;102154.27;115877;1209;61909;-81
2021/04/13 04:22:03;;;;;;;10.90;5.10;;;;;;;-0.08;87.08;102156.05;115839;1209;62238;-82
2021/04/13 04:24:35;;;;;;;11.03;5.50;;;;;;;-0.07;87.44;102154.27;115825;1209;62856;-81
2021/04/13 04:27:16;;;;;;;15.07;6.70;;;;;;;-0.06;87.14;102156.82;115949;1209;62466;-81
2021/04/13 04:30:03;;;;;;;11.10;4.97;;;;;;;-0.04;87.25;102162.81;115900;1209;62553;-82
2021/04/13 04:32:30;;;;;;;15.97;5.37;;;;;;;-0.03;87.92;102167.09;115901;1209;62202;-81
2021/04/13 04:34:58;;;;;;;9.73;6.23;;;;;;;0.02;87.13;102171.27;115892;1209;62373;-82
2021/04/13 04:37:37;;;;;;;12.63;6.00;;;;;;;0.05;87.38;102168.53;115834;1209;62732;-82
2021/04/13 04:40:13;;;;;;;18.37;6.40;;;;;;;0.08;87.36;102176.20;115884;1209;62243;-83
2021/04/13 04:43:22;;;;;;;12.03;5.50;;;;;;;0.12;87.00;102177.76;115865;1209;62148;-82
2021/04/13 04:45:51;;;;;;;14.35;5.85;;;;;;;0.17;87.73;102183.59;115542;1212;62499;-82
2021/04/13 04:48:18;;;;;;;12.33;5.90;;;;;;;0.23;87.66;102185.09;115770;1209;62510;-82
2021/04/13 04:50:46;;;;;;;12.43;6.53;;;;;;;0.28;87.65;102189.19;115824;1209;62436;-83
2021/04/13 04:53:14;;;;;;;17.47;5.83;;;;;;;0.33;87.94;102192.41;115809;1209;62518;-82
2021/04/13 04:55:41;;;;;;;9.20;6.25;;;;;;;0.37;87.47;102191.36;115461;1209;64438;-83
2021/04/13 04:58:08;;;;;;;8.70;4.03;;;;;;;0.41;87.21;102197.29;115816;1209;62508;-83
2021/04/13 05:00:34;;;;;;;7.53;2.87;;;;;;;0.44;87.54;102201.52;115792;1209;64076;-83
2021/04/13 05:03:01;;;;;;;8.50;4.35;;;;;;;0.47;87.23;102204.84;115843;1209;62448;-83
2021/04/13 05:05:28;;;;;;;12.90;5.47;;;;;;;0.51;87.07;102200.30;115592;1209;62419;-83
2021/04/13 05:07:54;;;;;;;8.03;4.77;;;;;;;0.54;87.00;102213.22;115845;1209;62188;-83
2021/04/13 05:10:21;;;;;;;8.57;4.17;;;;;;;0.55;87.22;102202.72;115769;1209;62869;-83
2021/04/13 05:12:49;;;;;;;13.23;4.57;;;;;;;0.59;87.23;102212.06;115899;1209;62389;-84
2021/04/13 05:15:19;;;;;;;9.67;4.90;;;;;;;0.61;87.07;102212.00;115826;1209;62227;-83
2021/04/13 05:17:45;;;;;;;11.70;5.90;;;;;;;0.64;87.08;102217.09;115798;1209;64160;-81
2021/04/13 05:20:13;;;;;;;12.55;6.35;;;;;;;0.67;86.57;102219.55;115889;1209;63156;-81
2021/04/13 05:22:39;;;;;;;13.40;5.25;;;;;;;0.72;86.73;102216.70;115929;1209;62403;-84
2021/04/13 05:25:06;;;;;;;11.50;5.53;;;;;;;0.76;86.71;102216.48;115834;1209;62270;-80
2021/04/13 05:27:33;;;;;;;10.70;3.93;;;;;;;0.83;86.63;102210.97;115890;1209;62284;-73
2021/04/13 05:29:59;;;;;;;6.10;3.13;;;;;;;0.90;86.13;102220.22;115888;1209;62325;-73
2021/04/13 05:32:27;;;;;;;10.97;3.47;;;;;;;0.97;86.68;102226.83;115882;1209;62168;-74
2021/04/13 05:34:53;;;;;;;8.10;4.00;;;;;;;1.04;86.24;102233.43;115851;1209;62454;-74
2021/04/13 05:37:20;;;;;;;13.95;4.05;;;;;;;1.09;86.48;102228.84;115907;1209;62687;-73
2021/04/13 05:39:46;;;;;;;4.45;2.25;;;;;;;1.14;85.93;102242.52;115900;1209;62091;-73
2021/04/13 05:42:22;;;;;;;11.70;4.47;;;;;;;1.18;85.64;102241.45;115832;1209;62554;-73
2021/04/13 05:44:50;;;;;;;7.43;4.03;;;;;;;1.20;86.01;102242.22;115886;1209;62426;-73
2021/04/13 05:47:18;;;;;;;5.97;3.27;;;;;;;1.22;85.56;102242.98;115836;1209;62526;-73
2021/04/13 05:49:44;;;;;;;10.50;4.43;;;;;;;1.28;85.83;102241.02;115869;1209;62134;-73
2021/04/13 05:52:11;;;;;;;6.33;3.77;;;;;;;1.33;85.54;102244.23;115793;1209;61946;-73
2021/04/13 05:54:38;;;;;;;11.13;4.27;;;;;;;1.39;84.93;102247.38;115879;1209;62377;-73
2021/04/13 05:57:05;;;;;;;9.87;4.50;;;;;;;1.45;84.93;102248.84;115825;1209;62696;-73
2021/04/13 05:59:33;;;;;;;9.60;3.47;;;;;;;1.51;84.81;102248.55;115795;1209;62878;-73
2021/04/13 06:02:01;;;;;;;7.77;3.87;;;;;;;1.60;85.16;102262.92;115871;1209;62264;-73
2021/04/13 06:04:28;;;;;;;13.37;5.10;;;;;;;1.72;84.78;102261.42;115908;1209;63001;-73
2021/04/13 06:06:54;;;;;;;9.00;4.15;;;;;;;1.79;84.36;102252.36;115828;1209;62140;-73
2021/04/13 06:09:21;;;;;;;5.33;2.10;;;;;;;1.81;83.91;102258.36;115900;1209;62647;-73
2021/04/13 06:11:48;;;;;;;8.73;3.37;;;;;;;1.85;83.80;102259.89;115834;1209;62401;-73
2021/04/13 06:14:15;;;;;;;6.53;3.10;;;;;;;1.92;83.50;102263.88;115919;1209;62298;-73
2021/04/13 06:16:43;;;;;;;9.53;4.50;;;;;;;2.02;83.47;102270.32;115853;1209;62309;-73
2021/04/13 06:19:11;;;;;;;15.87;3.57;;;;;;;2.13;83.30;102274.98;115794;1209;62377;-73
2021/04/13 06:21:38;;;;;;;4.77;3.03;;;;;;;2.26;82.20;102274.34;115862;1209;62726;-72
2021/04/13 06:24:05;;;;;;;9.83;3.33;;;;;;;2.40;82.13;102264.81;115867;1209;62318;-71
2021/04/13 06:26:32;;;;;;;5.80;2.23;;;;;;;2.60;82.14;102270.73;115772;1209;62171;-71
2021/04/13 06:28:58;;;;;;;3.67;1.47;;;;;;;2.75;81.06;102264.64;115717;1209;63187;-72
2021/04/13 06:31:25;;;;;;;9.67;3.27;;;;;;;2.90;80.56;102278.66;115865;1209;62227;-71
2021/04/13 06:33:51;;;;;;;5.03;2.40;;;;;;;3.06;79.58;102283.91;115846;1209;62324;-72
2021/04/13 06:36:23;;;;;;;5.60;2.83;;;;;;;3.17;79.21;102275.42;115837;1209;62194;-74
2021/04/13 06:38:52;;;;;;;6.05;2.50;;;;;;;3.21;78.87;102283.02;115905;1209;62036;-73
2021/04/13 06:41:43;;;;;;;5.93;2.40;;;;;;;3.34;78.61;102287.57;115852;1209;62360;-74
2021/04/13 06:44:13;;;;;;;5.60;1.93;;;;;;;3.36;78.03;102286.55;115880;1209;62172;-74
2021/04/13 06:47:10;;;;;;;7.73;3.20;;;;;;;3.43;78.78;102292.27;115876;1209;62166;-73
2021/04/13 06:50:00;;;;;;;6.17;2.63;;;;;;;3.47;78.30;102289.38;115680;1209;62388;-73
2021/04/13 06:52:48;;;;;;;2.33;1.30;;;;;;;3.50;76.76;102308.50;115844;1209;62259;-73
2021/04/13 06:55:59;;;;;;;5.90;2.17;;;;;;;3.53;77.67;102292.56;115895;1209;62150;-74
2021/04/13 06:58:52;;;;;;;3.47;1.70;;;;;;;3.51;77.10;102290.05;115874;1209;62420;-74
2021/04/13 07:01:31;;;;;;;6.97;2.10;;;;;;;3.52;76.78;102294.35;115831;1209;62255;-73
2021/04/13 07:04:17;;;;;;;6.33;1.43;;;;;;;3.58;77.64;102295.78;115758;1209;62831;-74
2021/04/13 07:06:59;;;;;;;7.43;2.00;;;;;;;3.68;77.57;102296.94;115843;1209;62315;-74
2021/04/13 07:09:46;;;;;;;9.90;2.70;;;;;;;3.77;77.75;102296.38;115835;1207;62345;-72
2021/04/13 07:12:26;;;;;;;5.43;2.03;;;;;;;3.85;76.92;102302.02;115844;1209;62633;-72
2021/04/13 07:15:02;;;;;;;2.33;1.50;;;;;;;3.90;75.34;102312.24;115855;1209;62178;-72
2021/04/13 07:17:29;;;;;;;6.20;1.60;;;;;;;3.83;76.16;102314.39;115834;1209;62604;-72
2021/04/13 07:20:09;;;;;;;2.10;0.97;;;;;;;3.88;76.52;102308.86;115868;1209;62345;-72
2021/04/13 07:22:42;;;;;;;5.97;1.40;;;;;;;3.90;75.95;102312.24;115854;1209;62081;-72
2021/04/13 07:25:33;;;;;;;4.57;1.90;;;;;;;4.03;76.50;102314.98;115772;1209;62357;-72
2021/04/13 07:28:06;;;;;;;4.20;1.77;;;;;;;4.12;75.79;102310.95;115859;1209;62887;-72
2021/04/13 07:30:50;;;;;;;7.23;1.90;;;;;;;4.20;76.64;102303.45;115796;1209;62350;-72
2021/04/13 07:33:25;;;;;;;3.50;1.10;;;;;;;4.35;75.02;102312.17;115846;1209;62384;-72
2021/04/13 07:36:00;;;;;;;4.33;1.67;;;;;;;4.42;74.72;102324.84;115867;1209;62090;-72
2021/04/13 07:38:31;;;;;;;9.68;1.90;;;;;;;4.52;74.18;102321.64;115835;1209;62915;-72
2021/04/13 07:41:11;;;;;;;4.90;2.27;;;;;;;4.63;73.48;102311.30;115862;1209;63358;-72
2021/04/13 07:43:47;;;;;;;5.50;1.30;;;;;;;4.70;73.69;102312.61;115804;1209;62402;-73
2021/04/13 07:46:32;;;;;;;3.53;1.03;;;;;;;4.75;73.25;102318.41;115862;1209;62425;-72
2021/04/13 07:49:14;;;;;;;;;;;;;;;4.79;74.34;102317.28;115906;1216;62506;-73
2021/04/13 07:51:41;;;;;;;2.85;1.45;;;;;;;4.81;74.31;102312.77;115832;1209;63051;-73
2021/04/13 07:54:51;;;;;;;4.10;1.37;;;;;;;4.85;72.83;102319.52;115856;1209;62623;-71
2021/04/13 07:57:27;;;;;;;3.23;1.60;;;;;;;5.01;72.43;102326.42;115698;1209;62363;-72
2021/04/13 08:00:05;;;;;;;5.10;1.50;;;;;;;5.22;72.55;102319.77;115863;1209;62129;-72
2021/04/13 08:02:31;;;;;;;6.20;1.70;;;;;;;5.34;70.86;102322.56;115877;1209;62155;-73
2021/04/13 08:05:00;;;;;;;7.15;1.60;;;;;;;5.40;71.19;102312.48;115775;1209;62377;-73
2021/04/13 08:07:38;;;;;;;9.20;2.13;;;;;;;5.45;69.44;102320.06;115829;1209;63116;-73
2021/04/13 08:10:26;;;;;;;3.13;1.60;;;;;;;5.70;69.09;102332.44;115873;1209;62416;-73
2021/04/13 08:13:13;;;;;;;3.20;1.37;;;;;;;5.75;68.60;102321.59;115836;1209;62283;-74
2021/04/13 08:15:48;;;;;;;5.20;1.73;;;;;;;5.56;67.86;102343.04;115873;1209;62227;-74
2021/04/13 08:18:36;;;;;;;3.47;1.47;;;;;;;5.39;68.41;102328.36;115846;1209;62217;-75
2021/04/13 08:21:27;;;;;;;6.00;1.37;;;;;;;5.40;69.57;102316.88;115837;1209;62338;-75
2021/04/13 08:23:54;;;;;;;2.30;0.77;;;;;;;5.51;69.73;102317.03;115812;1209;62383;-72
2021/04/13 08:26:32;;;;;;;4.30;1.87;;;;;;;5.61;70.09;102320.74;115834;1209;62488;-72
2021/04/13 08:29:24;;;;;;;7.57;1.60;;;;;;;5.77;68.73;102325.80;115848;1209;62283;-72
2021/04/13 08:35:14;;;;;;;6.10;1.50;;;;;;;6.18;66.95;102322.16;115902;1209;62980;-72
2021/04/13 08:37:53;;;;;;;3.70;1.40;;;;;;;6.25;64.72;102312.06;115884;1209;62252;-72
2021/04/13 08:40:33;;;;;;;4.20;1.23;;;;;;;6.30;64.90;102323.95;115818;1209;62161;-72
2021/04/13 08:43:29;;;;;;;12.27;2.33;;;;;;;6.28;63.33;102325.02;115869;1209;62136;-72
2021/04/13 08:45:55;;;;;;;4.57;1.53;;;;;;;6.22;62.99;102315.73;115802;1209;62908;-72
2021/04/13 08:48:52;;;;;;;5.23;1.50;;;;;;;6.18;63.13;102324.80;115846;1209;62663;-72
2021/04/13 08:51:37;;;;;;;7.90;1.50;;;;;;;6.37;62.98;102321.72;115568;1209;62254;-73
2021/04/13 08:54:19;;;;;;;8.80;1.40;;;;;;;6.53;60.67;102324.14;115788;1209;62474;-72
2021/04/13 08:56:57;;;;;;;6.23;1.87;;;;;;;6.58;58.25;102303.55;115862;1209;62360;-71
2021/04/13 08:59:46;;;;;;;5.87;1.40;;;;;;;6.86;60.23;102298.93;115886;1209;62452;-71
2021/04/13 09:02:38;;;;;;;5.30;1.00;;;;;;;6.97;60.06;102304.30;115901;1209;62426;-72
2021/04/13 09:05:21;;;;;;;6.83;1.53;;;;;;;6.89;59.89;102314.55;115878;1209;62333;-72
2021/04/13 09:07:49;;;;;;;2.87;1.13;;;;;;;6.66;60.62;102332.02;115869;1209;62282;-72
2021/04/13 09:10:43;;;;;;;4.23;1.70;;;;;;;6.69;60.15;102318.61;115864;1209;62107;-72
2021/04/13 09:13:18;;;;;;;6.03;1.80;;;;;;;6.70;58.88;102341.41;115867;1209;62123;-72
2021/04/13 09:15:56;;;;;;;6.23;1.73;;;;;;;6.67;60.51;102325.78;115845;1209;63356;-72
2021/04/13 09:18:45;;;;;;;4.00;1.40;;;;;;;6.63;61.05;102319.04;115861;1209;62442;-72
2021/04/13 09:21:21;;;;;;;1.67;0.90;;;;;;;6.62;61.28;102333.19;115843;1209;62194;-72
2021/04/13 09:24:35;;;;;;;4.50;1.07;;;;;;;6.57;61.11;102315.06;115790;1209;62402;-75
2021/04/13 09:27:39;;;;;;;3.70;1.17;;;;;;;6.53;59.91;102319.70;115760;1209;63387;-74
2021/04/13 09:30:27;;;;;;;3.03;1.07;;;;;;;6.50;60.51;102324.34;115767;1209;62951;-75
2021/04/13 09:33:08;;;;;;;5.27;0.90;;;;;;;6.77;60.10;102318.91;115780;1209;62575;-75
2021/04/13 09:35:44;;;;;;;9.37;1.50;;;;;;;6.82;59.41;102319.44;115855;1209;62256;-74
2021/04/13 09:38:29;;;;;;;3.83;1.50;;;;;;;6.76;58.64;102314.59;115863;1209;62155;-74
2021/04/13 09:41:10;;;;;;;5.50;0.97;;;;;;;6.63;58.00;102324.31;115817;1209;62316;-73
2021/04/13 09:44:05;;;;;;;6.13;1.10;;;;;;;6.63;59.74;102308.48;115815;1209;62705;-74
2021/04/13 09:46:57;;;;;;;2.23;0.90;;;;;;;6.72;59.21;102313.97;115881;1209;62180;-73
2021/04/13 09:49:32;;;;;;;3.37;1.00;;;;;;;6.86;58.35;102310.31;115830;1209;63974;-73
2021/04/13 09:52:20;;;;;;;6.10;1.35;;;;;;;6.82;57.24;102315.93;115880;1209;62451;-73
2021/04/13 09:55:28;;;;;;;6.75;1.35;;;;;;;6.73;57.32;102320.91;115858;1209;62951;-73
2021/04/13 09:58:16;;;;;;;4.10;1.00;;;;;;;6.62;57.73;102301.55;115764;1209;62202;-74
2021/04/13 10:01:04;;;;;;;3.20;1.07;;;;;;;6.75;57.06;102310.26;115776;1209;62822;-74
2021/04/13 10:04:05;;;;;;;8.10;1.50;;;;;;;7.05;55.61;102308.98;115835;1209;63020;-74
2021/04/13 10:06:40;;;;;;;2.03;1.00;;;;;;;7.22;54.94;102287.47;115872;1209;62363;-74
2021/04/13 10:09:23;;;;;;;2.43;0.70;;;;;;;7.31;54.44;102288.58;115946;1209;62109;-74
2021/04/13 10:12:07;;;;;;;5.00;0.87;;;;;;;7.39;52.65;102290.66;115845;1209;63295;-74
2021/04/13 10:14:49;;;;;;;4.77;1.30;;;;;;;7.67;52.37;102271.80;115871;1209;62443;-73
2021/04/13 10:17:24;;;;;;;2.97;0.93;;;;;;;7.94;48.10;102286.47;115846;1209;62052;-74
2021/04/13 10:20:07;;;;;;;2.30;0.87;;;;;;;8.28;49.20;102267.97;115886;1209;62144;-74
2021/04/13 10:22:50;;;;;;;5.70;1.10;;;;;;;8.34;47.90;102286.00;115872;1209;63032;-74
2021/04/13 10:25:53;;;;;;;3.20;0.93;;;;;;;8.07;49.01;102276.62;115929;1209;62998;-75
2021/04/13 10:28:42;;;;;;;6.20;1.23;;;;;;;7.88;52.29;102279.84;115818;1209;62434;-75
2021/04/13 10:31:27;;;;;;;5.90;1.30;;;;;;;7.70;51.36;102279.47;115898;1209;62352;-75
2021/04/13 10:34:37;;;;;;;9.23;1.15;;;;;;;7.86;49.67;102262.43;115849;1209;62356;-75
2021/04/13 10:37:51;;;;;;;3.87;0.80;;;;;;;7.96;47.83;102272.17;115869;1209;62351;-75
2021/04/13 10:40:43;;;;;;;3.53;1.10;;;;;;;8.27;50.16;102256.56;115874;1209;62990;-75
2021/04/13 10:43:56;;;;;;;3.33;0.63;;;;;;;8.38;46.47;102268.94;115846;1209;62468;-75
2021/04/13 10:46:32;;;;;;;1.67;0.57;;;;;;;8.55;47.97;102268.45;115850;1209;62327;-75
2021/04/13 10:49:02;;;;;;;2.83;0.80;;;;;;;8.73;47.21;102263.50;115851;1209;62702;-74
2021/04/13 10:51:48;;;;;;;3.45;0.90;;;;;;;8.87;46.97;102259.72;115887;1209;62110;-74
2021/04/13 10:54:58;;;;;;;3.13;1.40;;;;;;;8.80;46.42;102274.42;115869;1209;63015;-74
2021/04/13 10:58:07;;;;;;;6.27;1.10;;;;;;;8.84;44.76;102249.39;115839;1209;62482;-74
2021/04/13 11:00:45;;;;;;;4.80;0.90;;;;;;;8.90;43.59;102250.69;115853;1209;62138;-75
2021/04/13 11:03:43;;;;;;;4.83;0.97;;;;;;;9.14;44.80;102227.49;115839;1209;62437;-75
2021/04/13 11:06:22;;;;;;;2.30;0.53;;;;;;;9.17;43.38;102239.63;115869;1209;62331;-75
2021/04/13 11:09:35;;;;;;;6.37;1.00;;;;;;;9.10;44.83;102249.89;115895;1209;63292;-75
2021/04/13 11:12:35;;;;;;;4.00;1.00;;;;;;;8.91;44.55;102245.27;115610;1209;62323;-75
2021/04/13 11:15:03;;;;;;;3.27;1.07;;;;;;;8.75;46.00;102248.31;115855;1209;64217;-75
2021/04/13 11:18:01;;;;;;;2.90;0.90;;;;;;;8.83;47.77;102241.58;115867;1209;62375;-75
2021/04/13 11:21:12;;;;;;;5.75;1.00;;;;;;;8.94;45.89;102229.13;115864;1209;62600;-75
2021/04/13 11:24:15;;;;;;;2.98;0.90;;;;;;;9.32;46.98;102242.80;115893;1209;62402;-75
2021/04/13 11:27:21;;;;;;;3.65;1.15;;;;;;;9.35;45.44;102234.59;115873;1209;62179;-75
2021/04/13 11:30:29;;;;;;;4.07;0.87;;;;;;;9.03;44.73;102253.16;115917;1209;62206;-76
2021/04/13 11:33:48;;;;;;;7.10;1.10;;;;;;;8.93;45.36;102239.86;115841;1209;62169;-75
2021/04/13 11:36:26;;;;;;;2.05;0.50;;;;;;;9.21;45.97;102243.70;115521;1212;62334;-75
2021/04/13 11:39:13;;;;;;;8.05;1.00;;;;;;;9.38;44.94;102226.41;115534;1212;62361;-75
2021/04/13 11:42:00;;;;;;;7.70;1.40;;;;;;;9.53;44.27;102224.27;115770;1209;62429;-75
2021/04/13 11:44:46;;;;;;;2.77;0.83;;;;;;;9.76;44.73;102246.98;115842;1209;62364;-75
2021/04/13 11:47:19;;;;;;;4.77;1.00;;;;;;;9.97;43.65;102228.39;115845;1209;62240;-75
2021/04/13 11:50:00;;;;;;;3.90;1.27;;;;;;;10.15;43.79;102220.63;115811;1209;62430;-76
2021/04/13 11:52:32;;;;;;;3.90;1.05;;;;;;;10.24;44.92;102228.75;115798;1209;64152;-75
2021/04/13 11:54:59;;;;;;;5.43;1.13;;;;;;;9.94;45.16;102238.41;115833;1209;62724;-76
2021/04/13 11:57:28;;;;;;;2.57;0.73;;;;;;;9.59;47.42;102239.64;115831;1209;62292;-76
2021/04/13 12:00:24;;;;;;;1.50;0.70;;;;;;;9.10;49.89;102246.41;115784;1208;62534;-74
2021/04/13 12:03:31;;;;;;;3.67;0.77;;;;;;;8.69;51.32;102240.04;115716;1209;63387;-73
2021/04/13 12:06:12;;;;;;;3.50;1.10;;;;;;;8.55;54.43;102235.88;115855;1209;62286;-73
2021/04/13 12:08:43;;;;;;;4.20;0.67;;;;;;;8.49;56.06;102250.43;115871;1209;62387;-74
2021/04/13 12:11:17;;;;;;;2.90;0.80;;;;;;;8.20;54.47;102251.88;115856;1209;62179;-74
2021/04/13 12:13:47;;;;;;;5.97;1.43;;;;;;;8.11;53.53;102234.94;115872;1207;62685;-74
2021/04/13 12:16:39;;;;;;;3.25;0.90;;;;;;;8.34;53.74;102241.05;115867;1209;62899;-74